sensor_id;sensor_type;location;lat;lon;timestamp;P1;durP1;ratioP1;P2;durP2;ratioP2
69956;SDS011;57283;54.816;9.482;2023-05-07T00:02:17;9.05;;;3.47;;
69956;SDS011;57283;54.816;9.482;2023-05-07T00:04:45;8.27;;;3.40;;
69956;SDS011;57283;54.816;9.482;2023-05-07T00:07:13;16.27;;;3.30;;
69956;SDS011;57283;54.816;9.482;2023-05-07T00:09:42;7.47;;;3.40;;
69956;SDS011;57283;54.816;9.482;2023-05-07T00:12:10;10.73;;;3.90;;
69956;SDS011;57283;54.816;9.482;2023-05-07T00:14:37;8.38;;;3.58;;
69956;SDS011;57283;54.816;9.482;2023-05-07T00:17:05;8.52;;;3.20;;
69956;SDS011;57283;54.816;9.482;2023-05-07T00:19:33;11.73;;;3.47;;
69956;SDS011;57283;54.816;9.482;2023-05-07T00:22:00;7.35;;;3.20;;
69956;SDS011;57283;54.816;9.482;2023-05-07T00:24:28;9.40;;;3.87;;
69956;SDS011;57283;54.816;9.482;2023-05-07T00:26:57;13.18;;;3.65;;
69956;SDS011;57283;54.816;9.482;2023-05-07T00:29:25;10.93;;;3.90;;
69956;SDS011;57283;54.816;9.482;2023-05-07T00:31:52;10.70;;;3.85;;
69956;SDS011;57283;54.816;9.482;2023-05-07T00:34:21;8.43;;;3.30;;
69956;SDS011;57283;54.816;9.482;2023-05-07T00:36:48;11.00;;;4.03;;
69956;SDS011;57283;54.816;9.482;2023-05-07T00:39:16;12.43;;;3.70;;
69956;SDS011;57283;54.816;9.482;2023-05-07T00:41:44;11.20;;;4.00;;
69956;SDS011;57283;54.816;9.482;2023-05-07T00:44:13;7.63;;;3.45;;
69956;SDS011;57283;54.816;9.482;2023-05-07T00:46:41;8.68;;;3.70;;
69956;SDS011;57283;54.816;9.482;2023-05-07T00:49:08;13.07;;;4.13;;
69956;SDS011;57283;54.816;9.482;2023-05-07T00:51:36;7.20;;;3.30;;
69956;SDS011;57283;54.816;9.482;2023-05-07T00:54:04;8.65;;;3.50;;
69956;SDS011;57283;54.816;9.482;2023-05-07T00:56:32;11.15;;;3.92;;
69956;SDS011;57283;54.816;9.482;2023-05-07T00:59:00;9.07;;;3.60;;
69956;SDS011;57283;54.816;9.482;2023-05-07T01:01:30;10.07;;;4.13;;
69956;SDS011;57283;54.816;9.482;2023-05-07T01:03:58;11.45;;;4.00;;
69956;SDS011;57283;54.816;9.482;2023-05-07T01:06:26;10.98;;;3.70;;
69956;SDS011;57283;54.816;9.482;2023-05-07T01:08:55;10.93;;;3.72;;
69956;SDS011;57283;54.816;9.482;2023-05-07T01:11:23;10.57;;;4.07;;
69956;SDS011;57283;54.816;9.482;2023-05-07T01:13:51;10.33;;;4.60;;
69956;SDS011;57283;54.816;9.482;2023-05-07T01:16:19;11.23;;;4.53;;
69956;SDS011;57283;54.816;9.482;2023-05-07T01:18:49;7.68;;;4.10;;
69956;SDS011;57283;54.816;9.482;2023-05-07T01:21:17;11.38;;;4.50;;
69956;SDS011;57283;54.816;9.482;2023-05-07T01:23:46;9.75;;;4.35;;
69956;SDS011;57283;54.816;9.482;2023-05-07T01:26:14;11.73;;;4.57;;
69956;SDS011;57283;54.816;9.482;2023-05-07T01:28:42;11.55;;;4.15;;
69956;SDS011;57283;54.816;9.482;2023-05-07T01:31:10;9.77;;;3.92;;
69956;SDS011;57283;54.816;9.482;2023-05-07T01:33:40;12.38;;;4.53;;
69956;SDS011;57283;54.816;9.482;2023-05-07T01:36:08;10.73;;;4.25;;
69956;SDS011;57283;54.816;9.482;2023-05-07T01:38:36;11.80;;;4.13;;
69956;SDS011;57283;54.816;9.482;2023-05-07T01:41:06;10.75;;;3.83;;
69956;SDS011;57283;54.816;9.482;2023-05-07T01:43:34;9.05;;;3.90;;
69956;SDS011;57283;54.816;9.482;2023-05-07T01:46:02;11.85;;;4.90;;
69956;SDS011;57283;54.816;9.482;2023-05-07T01:48:30;9.50;;;4.07;;
69956;SDS011;57283;54.816;9.482;2023-05-07T01:50:58;12.23;;;4.13;;
69956;SDS011;57283;54.816;9.482;2023-05-07T01:53:26;14.25;;;5.03;;
69956;SDS011;57283;54.816;9.482;2023-05-07T01:55:54;12.23;;;4.88;;
69956;SDS011;57283;54.816;9.482;2023-05-07T01:58:23;11.75;;;5.05;;
69956;SDS011;57283;54.816;9.482;2023-05-07T02:00:50;12.00;;;5.35;;
69956;SDS011;57283;54.816;9.482;2023-05-07T02:03:18;10.73;;;5.20;;
69956;SDS011;57283;54.816;9.482;2023-05-07T02:05:46;10.13;;;4.68;;
69956;SDS011;57283;54.816;9.482;2023-05-07T02:08:13;13.48;;;5.55;;
69956;SDS011;57283;54.816;9.482;2023-05-07T02:10:41;11.82;;;5.30;;
69956;SDS011;57283;54.816;9.482;2023-05-07T02:13:08;11.48;;;4.82;;
69956;SDS011;57283;54.816;9.482;2023-05-07T02:15:37;12.10;;;4.80;;
69956;SDS011;57283;54.816;9.482;2023-05-07T02:18:06;11.38;;;4.53;;
69956;SDS011;57283;54.816;9.482;2023-05-07T02:20:34;9.38;;;3.72;;
69956;SDS011;57283;54.816;9.482;2023-05-07T02:23:01;13.85;;;5.20;;
69956;SDS011;57283;54.816;9.482;2023-05-07T02:25:29;12.63;;;5.18;;
69956;SDS011;57283;54.816;9.482;2023-05-07T02:27:56;11.47;;;4.90;;
69956;SDS011;57283;54.816;9.482;2023-05-07T02:30:24;11.52;;;5.13;;
69956;SDS011;57283;54.816;9.482;2023-05-07T02:32:53;15.93;;;4.88;;
69956;SDS011;57283;54.816;9.482;2023-05-07T02:35:21;9.48;;;4.53;;
69956;SDS011;57283;54.816;9.482;2023-05-07T02:37:48;9.65;;;5.00;;
69956;SDS011;57283;54.816;9.482;2023-05-07T02:40:16;10.07;;;4.57;;
69956;SDS011;57283;54.816;9.482;2023-05-07T02:42:43;9.90;;;4.85;;
69956;SDS011;57283;54.816;9.482;2023-05-07T02:45:11;10.07;;;4.35;;
69956;SDS011;57283;54.816;9.482;2023-05-07T02:47:39;9.95;;;4.22;;
69956;SDS011;57283;54.816;9.482;2023-05-07T02:50:08;10.40;;;4.22;;
69956;SDS011;57283;54.816;9.482;2023-05-07T02:52:36;11.93;;;4.27;;
69956;SDS011;57283;54.816;9.482;2023-05-07T02:55:04;8.20;;;4.57;;
69956;SDS011;57283;54.816;9.482;2023-05-07T02:57:33;7.35;;;4.07;;
69956;SDS011;57283;54.816;9.482;2023-05-07T03:00:09;10.05;;;4.78;;
69956;SDS011;57283;54.816;9.482;2023-05-07T03:02:37;13.13;;;4.90;;
69956;SDS011;57283;54.816;9.482;2023-05-07T03:05:05;8.03;;;4.50;;
69956;SDS011;57283;54.816;9.482;2023-05-07T03:07:35;11.32;;;4.90;;
69956;SDS011;57283;54.816;9.482;2023-05-07T03:10:02;11.18;;;4.38;;
69956;SDS011;57283;54.816;9.482;2023-05-07T03:12:30;9.88;;;4.97;;
69956;SDS011;57283;54.816;9.482;2023-05-07T03:14:58;7.82;;;4.25;;
69956;SDS011;57283;54.816;9.482;2023-05-07T03:17:26;8.90;;;4.60;;
69956;SDS011;57283;54.816;9.482;2023-05-07T03:19:53;10.45;;;5.32;;
69956;SDS011;57283;54.816;9.482;2023-05-07T03:22:21;8.95;;;4.78;;
69956;SDS011;57283;54.816;9.482;2023-05-07T03:24:50;9.50;;;4.72;;
69956;SDS011;57283;54.816;9.482;2023-05-07T03:27:17;8.77;;;4.35;;
69956;SDS011;57283;54.816;9.482;2023-05-07T03:29:45;9.17;;;5.13;;
69956;SDS011;57283;54.816;9.482;2023-05-07T03:32:12;10.55;;;5.15;;
69956;SDS011;57283;54.816;9.482;2023-05-07T03:34:40;11.63;;;5.90;;
69956;SDS011;57283;54.816;9.482;2023-05-07T03:37:08;10.15;;;4.75;;
69956;SDS011;57283;54.816;9.482;2023-05-07T03:39:35;10.30;;;5.80;;
69956;SDS011;57283;54.816;9.482;2023-05-07T03:42:04;8.80;;;4.97;;
69956;SDS011;57283;54.816;9.482;2023-05-07T03:44:32;11.80;;;5.43;;
69956;SDS011;57283;54.816;9.482;2023-05-07T03:47:00;10.00;;;5.45;;
69956;SDS011;57283;54.816;9.482;2023-05-07T03:49:27;10.82;;;5.57;;
69956;SDS011;57283;54.816;9.482;2023-05-07T03:51:55;12.85;;;5.20;;
69956;SDS011;57283;54.816;9.482;2023-05-07T03:54:23;9.47;;;5.07;;
69956;SDS011;57283;54.816;9.482;2023-05-07T03:56:50;11.35;;;4.88;;
69956;SDS011;57283;54.816;9.482;2023-05-07T03:59:19;10.77;;;5.00;;
69956;SDS011;57283;54.816;9.482;2023-05-07T04:01:47;10.80;;;5.65;;
69956;SDS011;57283;54.816;9.482;2023-05-07T04:04:14;10.52;;;5.15;;
69956;SDS011;57283;54.816;9.482;2023-05-07T04:06:43;9.43;;;5.07;;
69956;SDS011;57283;54.816;9.482;2023-05-07T04:09:10;12.55;;;5.15;;
69956;SDS011;57283;54.816;9.482;2023-05-07T04:11:38;11.48;;;5.30;;
69956;SDS011;57283;54.816;9.482;2023-05-07T04:14:06;10.20;;;5.20;;
69956;SDS011;57283;54.816;9.482;2023-05-07T04:16:35;13.25;;;5.28;;
69956;SDS011;57283;54.816;9.482;2023-05-07T04:19:03;11.20;;;4.60;;
69956;SDS011;57283;54.816;9.482;2023-05-07T04:21:31;10.77;;;5.60;;
69956;SDS011;57283;54.816;9.482;2023-05-07T04:23:59;9.50;;;4.93;;
69956;SDS011;57283;54.816;9.482;2023-05-07T04:26:27;10.85;;;5.25;;
69956;SDS011;57283;54.816;9.482;2023-05-07T04:28:54;12.00;;;5.75;;
69956;SDS011;57283;54.816;9.482;2023-05-07T04:31:22;12.90;;;5.20;;
69956;SDS011;57283;54.816;9.482;2023-05-07T04:33:51;10.63;;;6.32;;
69956;SDS011;57283;54.816;9.482;2023-05-07T04:36:19;9.27;;;4.88;;
69956;SDS011;57283;54.816;9.482;2023-05-07T04:38:47;11.48;;;5.68;;
69956;SDS011;57283;54.816;9.482;2023-05-07T04:41:15;10.63;;;5.05;;
69956;SDS011;57283;54.816;9.482;2023-05-07T04:43:42;9.83;;;5.17;;
69956;SDS011;57283;54.816;9.482;2023-05-07T04:46:10;13.02;;;5.40;;
69956;SDS011;57283;54.816;9.482;2023-05-07T04:48:38;9.50;;;5.45;;
69956;SDS011;57283;54.816;9.482;2023-05-07T04:51:07;10.48;;;5.20;;
69956;SDS011;57283;54.816;9.482;2023-05-07T04:53:35;9.60;;;5.18;;
69956;SDS011;57283;54.816;9.482;2023-05-07T04:56:02;10.77;;;5.03;;
69956;SDS011;57283;54.816;9.482;2023-05-07T04:58:30;10.20;;;5.55;;
69956;SDS011;57283;54.816;9.482;2023-05-07T05:00:58;10.90;;;5.30;;
69956;SDS011;57283;54.816;9.482;2023-05-07T05:03:26;8.98;;;4.70;;
69956;SDS011;57283;54.816;9.482;2023-05-07T05:05:54;10.48;;;5.72;;
69956;SDS011;57283;54.816;9.482;2023-05-07T05:08:24;11.97;;;4.27;;
69956;SDS011;57283;54.816;9.482;2023-05-07T05:10:52;12.25;;;5.90;;
69956;SDS011;57283;54.816;9.482;2023-05-07T05:13:19;10.82;;;5.75;;
69956;SDS011;57283;54.816;9.482;2023-05-07T05:15:47;9.65;;;4.82;;
69956;SDS011;57283;54.816;9.482;2023-05-07T05:18:15;9.57;;;5.25;;
69956;SDS011;57283;54.816;9.482;2023-05-07T05:20:43;9.13;;;4.97;;
69956;SDS011;57283;54.816;9.482;2023-05-07T05:23:10;9.90;;;5.63;;
69956;SDS011;57283;54.816;9.482;2023-05-07T05:25:39;10.10;;;5.25;;
69956;SDS011;57283;54.816;9.482;2023-05-07T05:28:07;9.45;;;5.32;;
69956;SDS011;57283;54.816;9.482;2023-05-07T05:30:35;9.48;;;4.65;;
69956;SDS011;57283;54.816;9.482;2023-05-07T05:33:02;10.80;;;5.37;;
69956;SDS011;57283;54.816;9.482;2023-05-07T05:35:30;9.90;;;5.03;;
69956;SDS011;57283;54.816;9.482;2023-05-07T05:37:58;9.45;;;4.68;;
69956;SDS011;57283;54.816;9.482;2023-05-07T05:40:25;10.65;;;5.03;;
69956;SDS011;57283;54.816;9.482;2023-05-07T05:42:54;9.20;;;4.93;;
69956;SDS011;57283;54.816;9.482;2023-05-07T05:45:22;9.37;;;5.17;;
69956;SDS011;57283;54.816;9.482;2023-05-07T05:47:49;7.57;;;4.05;;
69956;SDS011;57283;54.816;9.482;2023-05-07T05:50:17;7.88;;;4.30;;
69956;SDS011;57283;54.816;9.482;2023-05-07T05:52:45;9.10;;;4.65;;
69956;SDS011;57283;54.816;9.482;2023-05-07T05:55:12;9.13;;;4.05;;
69956;SDS011;57283;54.816;9.482;2023-05-07T05:57:40;7.57;;;4.33;;
69956;SDS011;57283;54.816;9.482;2023-05-07T06:00:10;7.53;;;3.90;;
69956;SDS011;57283;54.816;9.482;2023-05-07T06:02:38;9.75;;;4.60;;
69956;SDS011;57283;54.816;9.482;2023-05-07T06:05:06;7.07;;;3.80;;
69956;SDS011;57283;54.816;9.482;2023-05-07T06:07:34;7.43;;;4.07;;
69956;SDS011;57283;54.816;9.482;2023-05-07T06:10:01;7.30;;;3.87;;
69956;SDS011;57283;54.816;9.482;2023-05-07T06:12:39;8.15;;;4.03;;
69956;SDS011;57283;54.816;9.482;2023-05-07T06:15:07;7.40;;;4.25;;
69956;SDS011;57283;54.816;9.482;2023-05-07T06:17:36;9.25;;;4.30;;
69956;SDS011;57283;54.816;9.482;2023-05-07T06:20:04;7.75;;;4.28;;
69956;SDS011;57283;54.816;9.482;2023-05-07T06:22:32;8.50;;;4.33;;
69956;SDS011;57283;54.816;9.482;2023-05-07T06:24:59;8.43;;;3.78;;
69956;SDS011;57283;54.816;9.482;2023-05-07T06:27:27;6.95;;;3.97;;
69956;SDS011;57283;54.816;9.482;2023-05-07T06:29:55;7.53;;;4.22;;
69956;SDS011;57283;54.816;9.482;2023-05-07T06:32:22;7.60;;;4.25;;
69956;SDS011;57283;54.816;9.482;2023-05-07T06:34:51;7.30;;;4.23;;
69956;SDS011;57283;54.816;9.482;2023-05-07T06:37:19;7.38;;;4.18;;
69956;SDS011;57283;54.816;9.482;2023-05-07T06:39:47;9.15;;;4.20;;
69956;SDS011;57283;54.816;9.482;2023-05-07T06:42:14;7.57;;;4.15;;
69956;SDS011;57283;54.816;9.482;2023-05-07T06:44:42;8.20;;;4.10;;
69956;SDS011;57283;54.816;9.482;2023-05-07T06:47:10;8.63;;;5.07;;
69956;SDS011;57283;54.816;9.482;2023-05-07T06:49:40;7.35;;;4.18;;
69956;SDS011;57283;54.816;9.482;2023-05-07T06:52:09;8.40;;;4.47;;
69956;SDS011;57283;54.816;9.482;2023-05-07T06:54:37;8.07;;;4.50;;
69956;SDS011;57283;54.816;9.482;2023-05-07T06:57:05;7.32;;;4.38;;
69956;SDS011;57283;54.816;9.482;2023-05-07T06:59:32;9.40;;;4.47;;
69956;SDS011;57283;54.816;9.482;2023-05-07T07:02:00;7.85;;;4.50;;
69956;SDS011;57283;54.816;9.482;2023-05-07T07:04:28;8.52;;;4.60;;
69956;SDS011;57283;54.816;9.482;2023-05-07T07:06:56;7.72;;;4.38;;
69956;SDS011;57283;54.816;9.482;2023-05-07T07:09:25;6.97;;;4.00;;
69956;SDS011;57283;54.816;9.482;2023-05-07T07:11:52;7.30;;;4.27;;
69956;SDS011;57283;54.816;9.482;2023-05-07T07:14:20;8.07;;;4.00;;
69956;SDS011;57283;54.816;9.482;2023-05-07T07:16:48;9.77;;;4.60;;
69956;SDS011;57283;54.816;9.482;2023-05-07T07:19:16;9.25;;;4.43;;
69956;SDS011;57283;54.816;9.482;2023-05-07T07:21:43;7.97;;;4.38;;
69956;SDS011;57283;54.816;9.482;2023-05-07T07:24:11;9.90;;;4.33;;
69956;SDS011;57283;54.816;9.482;2023-05-07T07:26:40;8.60;;;4.30;;
69956;SDS011;57283;54.816;9.482;2023-05-07T07:29:08;7.05;;;4.40;;
69956;SDS011;57283;54.816;9.482;2023-05-07T07:31:36;8.52;;;4.55;;
69956;SDS011;57283;54.816;9.482;2023-05-07T07:34:04;9.35;;;4.90;;
69956;SDS011;57283;54.816;9.482;2023-05-07T07:36:31;7.40;;;4.40;;
69956;SDS011;57283;54.816;9.482;2023-05-07T07:39:11;8.77;;;4.15;;
69956;SDS011;57283;54.816;9.482;2023-05-07T07:41:40;7.35;;;4.38;;
69956;SDS011;57283;54.816;9.482;2023-05-07T07:44:07;7.45;;;4.15;;
69956;SDS011;57283;54.816;9.482;2023-05-07T07:46:41;8.20;;;4.18;;
69956;SDS011;57283;54.816;9.482;2023-05-07T07:49:09;8.13;;;4.53;;
69956;SDS011;57283;54.816;9.482;2023-05-07T07:51:37;7.65;;;4.15;;
69956;SDS011;57283;54.816;9.482;2023-05-07T07:54:04;7.45;;;4.03;;
69956;SDS011;57283;54.816;9.482;2023-05-07T07:56:32;7.47;;;4.45;;
69956;SDS011;57283;54.816;9.482;2023-05-07T07:59:02;8.05;;;3.90;;
69956;SDS011;57283;54.816;9.482;2023-05-07T08:01:29;8.67;;;4.70;;
69956;SDS011;57283;54.816;9.482;2023-05-07T08:03:57;7.07;;;4.28;;
69956;SDS011;57283;54.816;9.482;2023-05-07T08:06:26;7.03;;;4.40;;
69956;SDS011;57283;54.816;9.482;2023-05-07T08:08:53;8.25;;;4.82;;
69956;SDS011;57283;54.816;9.482;2023-05-07T08:11:21;7.30;;;4.38;;
69956;SDS011;57283;54.816;9.482;2023-05-07T08:13:49;7.43;;;4.47;;
69956;SDS011;57283;54.816;9.482;2023-05-07T08:16:18;8.25;;;4.55;;
69956;SDS011;57283;54.816;9.482;2023-05-07T08:18:47;9.57;;;5.18;;
69956;SDS011;57283;54.816;9.482;2023-05-07T08:21:15;7.65;;;4.60;;
69956;SDS011;57283;54.816;9.482;2023-05-07T08:23:42;7.28;;;4.43;;
69956;SDS011;57283;54.816;9.482;2023-05-07T08:26:10;8.43;;;4.70;;
69956;SDS011;57283;54.816;9.482;2023-05-07T08:28:37;9.45;;;4.80;;
69956;SDS011;57283;54.816;9.482;2023-05-07T08:31:05;14.32;;;7.30;;
69956;SDS011;57283;54.816;9.482;2023-05-07T08:33:34;14.63;;;7.35;;
69956;SDS011;57283;54.816;9.482;2023-05-07T08:36:02;8.90;;;5.53;;
69956;SDS011;57283;54.816;9.482;2023-05-07T08:38:30;7.83;;;4.60;;
69956;SDS011;57283;54.816;9.482;2023-05-07T08:41:03;7.43;;;4.70;;
69956;SDS011;57283;54.816;9.482;2023-05-07T08:43:33;7.00;;;4.78;;
69956;SDS011;57283;54.816;9.482;2023-05-07T08:46:03;8.32;;;5.30;;
69956;SDS011;57283;54.816;9.482;2023-05-07T08:48:36;7.93;;;4.93;;
69956;SDS011;57283;54.816;9.482;2023-05-07T08:51:04;7.03;;;5.00;;
69956;SDS011;57283;54.816;9.482;2023-05-07T08:53:32;7.63;;;5.40;;
69956;SDS011;57283;54.816;9.482;2023-05-07T08:56:00;7.68;;;6.03;;
69956;SDS011;57283;54.816;9.482;2023-05-07T08:58:28;6.38;;;4.88;;
69956;SDS011;57283;54.816;9.482;2023-05-07T09:00:56;7.25;;;4.82;;
69956;SDS011;57283;54.816;9.482;2023-05-07T09:03:23;7.63;;;5.50;;
69956;SDS011;57283;54.816;9.482;2023-05-07T09:05:52;8.75;;;5.28;;
69956;SDS011;57283;54.816;9.482;2023-05-07T09:08:23;7.45;;;5.47;;
69956;SDS011;57283;54.816;9.482;2023-05-07T09:10:51;7.20;;;5.05;;
69956;SDS011;57283;54.816;9.482;2023-05-07T09:13:19;7.10;;;5.80;;
69956;SDS011;57283;54.816;9.482;2023-05-07T09:15:47;7.20;;;5.80;;
69956;SDS011;57283;54.816;9.482;2023-05-07T09:18:15;8.52;;;6.20;;
69956;SDS011;57283;54.816;9.482;2023-05-07T09:20:42;7.15;;;5.78;;
69956;SDS011;57283;54.816;9.482;2023-05-07T09:23:11;8.13;;;5.57;;
69956;SDS011;57283;54.816;9.482;2023-05-07T09:25:39;8.05;;;5.60;;
69956;SDS011;57283;54.816;9.482;2023-05-07T09:28:06;7.20;;;5.83;;
69956;SDS011;57283;54.816;9.482;2023-05-07T09:30:36;7.43;;;5.38;;
69956;SDS011;57283;54.816;9.482;2023-05-07T09:33:03;6.97;;;4.97;;
69956;SDS011;57283;54.816;9.482;2023-05-07T09:35:31;7.30;;;5.40;;
69956;SDS011;57283;54.816;9.482;2023-05-07T09:37:59;8.07;;;5.05;;
69956;SDS011;57283;54.816;9.482;2023-05-07T09:40:31;7.07;;;5.20;;
69956;SDS011;57283;54.816;9.482;2023-05-07T09:43:08;6.72;;;5.18;;
69956;SDS011;57283;54.816;9.482;2023-05-07T09:45:36;7.95;;;5.80;;
69956;SDS011;57283;54.816;9.482;2023-05-07T09:48:05;7.63;;;5.80;;
69956;SDS011;57283;54.816;9.482;2023-05-07T09:50:35;7.57;;;5.43;;
69956;SDS011;57283;54.816;9.482;2023-05-07T09:53:03;8.23;;;5.87;;
69956;SDS011;57283;54.816;9.482;2023-05-07T09:55:33;7.50;;;5.57;;
69956;SDS011;57283;54.816;9.482;2023-05-07T09:58:00;8.00;;;5.60;;
69956;SDS011;57283;54.816;9.482;2023-05-07T10:00:29;8.35;;;5.43;;
69956;SDS011;57283;54.816;9.482;2023-05-07T10:02:57;9.10;;;5.93;;
69956;SDS011;57283;54.816;9.482;2023-05-07T10:05:25;8.67;;;5.97;;
69956;SDS011;57283;54.816;9.482;2023-05-07T10:07:53;7.57;;;5.20;;
69956;SDS011;57283;54.816;9.482;2023-05-07T10:10:21;8.52;;;5.82;;
69956;SDS011;57283;54.816;9.482;2023-05-07T10:12:50;9.57;;;5.78;;
69956;SDS011;57283;54.816;9.482;2023-05-07T10:15:18;7.80;;;5.10;;
69956;SDS011;57283;54.816;9.482;2023-05-07T10:17:46;8.90;;;6.10;;
69956;SDS011;57283;54.816;9.482;2023-05-07T10:20:14;9.60;;;5.93;;
69956;SDS011;57283;54.816;9.482;2023-05-07T10:22:43;10.15;;;6.72;;
69956;SDS011;57283;54.816;9.482;2023-05-07T10:25:13;7.57;;;5.70;;
69956;SDS011;57283;54.816;9.482;2023-05-07T10:27:42;7.15;;;5.30;;
69956;SDS011;57283;54.816;9.482;2023-05-07T10:30:15;7.93;;;5.50;;
69956;SDS011;57283;54.816;9.482;2023-05-07T10:32:47;9.30;;;6.10;;
69956;SDS011;57283;54.816;9.482;2023-05-07T10:35:17;8.55;;;5.90;;
69956;SDS011;57283;54.816;9.482;2023-05-07T10:37:46;7.25;;;4.90;;
69956;SDS011;57283;54.816;9.482;2023-05-07T10:40:15;8.15;;;5.30;;
69956;SDS011;57283;54.816;9.482;2023-05-07T10:42:53;7.23;;;5.47;;
69956;SDS011;57283;54.816;9.482;2023-05-07T10:45:23;8.63;;;5.68;;
69956;SDS011;57283;54.816;9.482;2023-05-07T10:48:09;7.65;;;5.50;;
69956;SDS011;57283;54.816;9.482;2023-05-07T10:50:41;7.72;;;5.38;;
69956;SDS011;57283;54.816;9.482;2023-05-07T10:53:21;7.07;;;5.80;;
69956;SDS011;57283;54.816;9.482;2023-05-07T10:56:23;7.70;;;6.13;;
69956;SDS011;57283;54.816;9.482;2023-05-07T10:58:40;7.93;;;5.53;;
69956;SDS011;57283;54.816;9.482;2023-05-07T11:01:08;7.20;;;5.28;;
69956;SDS011;57283;54.816;9.482;2023-05-07T11:04:12;7.47;;;5.72;;
69956;SDS011;57283;54.816;9.482;2023-05-07T11:06:33;7.15;;;5.90;;
69956;SDS011;57283;54.816;9.482;2023-05-07T11:09:00;7.17;;;5.13;;
69956;SDS011;57283;54.816;9.482;2023-05-07T11:11:44;7.57;;;5.50;;
69956;SDS011;57283;54.816;9.482;2023-05-07T11:14:13;8.07;;;5.07;;
69956;SDS011;57283;54.816;9.482;2023-05-07T11:16:42;7.47;;;5.60;;
69956;SDS011;57283;54.816;9.482;2023-05-07T11:19:10;9.73;;;5.50;;
69956;SDS011;57283;54.816;9.482;2023-05-07T11:21:38;7.67;;;5.33;;
69956;SDS011;57283;54.816;9.482;2023-05-07T11:24:07;7.30;;;5.18;;
69956;SDS011;57283;54.816;9.482;2023-05-07T11:26:42;8.10;;;5.80;;
69956;SDS011;57283;54.816;9.482;2023-05-07T11:29:11;8.27;;;5.53;;
69956;SDS011;57283;54.816;9.482;2023-05-07T11:31:38;7.88;;;5.45;;
69956;SDS011;57283;54.816;9.482;2023-05-07T11:34:08;7.07;;;5.13;;
69956;SDS011;57283;54.816;9.482;2023-05-07T11:36:37;9.20;;;5.45;;
69956;SDS011;57283;54.816;9.482;2023-05-07T11:39:23;7.90;;;4.80;;
69956;SDS011;57283;54.816;9.482;2023-05-07T11:41:50;7.28;;;4.88;;
69956;SDS011;57283;54.816;9.482;2023-05-07T11:44:19;8.13;;;5.40;;
69956;SDS011;57283;54.816;9.482;2023-05-07T11:46:46;7.20;;;4.90;;
69956;SDS011;57283;54.816;9.482;2023-05-07T11:49:16;8.90;;;5.28;;
69956;SDS011;57283;54.816;9.482;2023-05-07T11:51:44;9.40;;;5.20;;
69956;SDS011;57283;54.816;9.482;2023-05-07T11:54:15;7.82;;;4.68;;
69956;SDS011;57283;54.816;9.482;2023-05-07T11:56:43;6.93;;;5.00;;
69956;SDS011;57283;54.816;9.482;2023-05-07T11:59:11;6.97;;;5.10;;
69956;SDS011;57283;54.816;9.482;2023-05-07T12:01:38;7.00;;;5.20;;
69956;SDS011;57283;54.816;9.482;2023-05-07T12:04:06;8.82;;;5.00;;
69956;SDS011;57283;54.816;9.482;2023-05-07T12:06:37;6.95;;;4.95;;
69956;SDS011;57283;54.816;9.482;2023-05-07T12:09:05;7.50;;;5.45;;
69956;SDS011;57283;54.816;9.482;2023-05-07T12:11:37;7.10;;;4.83;;
69956;SDS011;57283;54.816;9.482;2023-05-07T12:14:06;6.97;;;5.13;;
69956;SDS011;57283;54.816;9.482;2023-05-07T12:16:37;7.53;;;5.30;;
69956;SDS011;57283;54.816;9.482;2023-05-07T12:19:06;6.68;;;4.88;;
69956;SDS011;57283;54.816;9.482;2023-05-07T12:21:36;7.00;;;4.65;;
69956;SDS011;57283;54.816;9.482;2023-05-07T12:24:04;6.67;;;4.50;;
69956;SDS011;57283;54.816;9.482;2023-05-07T12:26:31;8.18;;;4.45;;
69956;SDS011;57283;54.816;9.482;2023-05-07T12:28:59;7.68;;;4.90;;
69956;SDS011;57283;54.816;9.482;2023-05-07T12:31:27;6.63;;;4.32;;
69956;SDS011;57283;54.816;9.482;2023-05-07T12:33:54;6.55;;;4.45;;
69956;SDS011;57283;54.816;9.482;2023-05-07T12:36:22;8.10;;;5.33;;
69956;SDS011;57283;54.816;9.482;2023-05-07T12:38:52;7.50;;;4.70;;
69956;SDS011;57283;54.816;9.482;2023-05-07T12:41:21;6.93;;;4.47;;
69956;SDS011;57283;54.816;9.482;2023-05-07T12:43:55;7.60;;;4.82;;
69956;SDS011;57283;54.816;9.482;2023-05-07T12:46:23;6.50;;;4.40;;
69956;SDS011;57283;54.816;9.482;2023-05-07T12:48:51;6.93;;;4.70;;
69956;SDS011;57283;54.816;9.482;2023-05-07T12:51:19;6.78;;;4.88;;
69956;SDS011;57283;54.816;9.482;2023-05-07T12:53:47;7.68;;;5.03;;
69956;SDS011;57283;54.816;9.482;2023-05-07T12:56:16;7.25;;;4.57;;
69956;SDS011;57283;54.816;9.482;2023-05-07T12:58:44;6.78;;;4.65;;
69956;SDS011;57283;54.816;9.482;2023-05-07T13:01:11;7.57;;;4.93;;
69956;SDS011;57283;54.816;9.482;2023-05-07T13:03:41;6.70;;;4.78;;
69956;SDS011;57283;54.816;9.482;2023-05-07T13:06:15;6.43;;;4.72;;
69956;SDS011;57283;54.816;9.482;2023-05-07T13:08:43;6.78;;;4.72;;
69956;SDS011;57283;54.816;9.482;2023-05-07T13:11:10;7.38;;;4.95;;
69956;SDS011;57283;54.816;9.482;2023-05-07T13:13:40;8.13;;;5.27;;
69956;SDS011;57283;54.816;9.482;2023-05-07T13:16:08;8.30;;;5.60;;
69956;SDS011;57283;54.816;9.482;2023-05-07T13:18:37;7.93;;;5.47;;
69956;SDS011;57283;54.816;9.482;2023-05-07T13:21:05;6.35;;;4.47;;
69956;SDS011;57283;54.816;9.482;2023-05-07T13:23:33;9.23;;;5.10;;
69956;SDS011;57283;54.816;9.482;2023-05-07T13:26:01;8.53;;;4.77;;
69956;SDS011;57283;54.816;9.482;2023-05-07T13:28:36;7.95;;;4.78;;
69956;SDS011;57283;54.816;9.482;2023-05-07T13:31:05;7.75;;;4.75;;
69956;SDS011;57283;54.816;9.482;2023-05-07T13:33:33;8.15;;;5.07;;
69956;SDS011;57283;54.816;9.482;2023-05-07T13:36:01;9.45;;;5.03;;
69956;SDS011;57283;54.816;9.482;2023-05-07T13:38:30;8.00;;;4.73;;
69956;SDS011;57283;54.816;9.482;2023-05-07T13:40:58;9.40;;;4.68;;
69956;SDS011;57283;54.816;9.482;2023-05-07T13:43:26;7.53;;;4.60;;
69956;SDS011;57283;54.816;9.482;2023-05-07T13:45:53;8.95;;;4.80;;
69956;SDS011;57283;54.816;9.482;2023-05-07T13:48:22;7.72;;;4.57;;
69956;SDS011;57283;54.816;9.482;2023-05-07T13:50:50;7.80;;;4.70;;
69956;SDS011;57283;54.816;9.482;2023-05-07T13:53:17;8.93;;;4.88;;
69956;SDS011;57283;54.816;9.482;2023-05-07T13:55:45;8.02;;;4.90;;
69956;SDS011;57283;54.816;9.482;2023-05-07T13:58:13;8.98;;;4.70;;
69956;SDS011;57283;54.816;9.482;2023-05-07T14:00:40;7.90;;;4.55;;
69956;SDS011;57283;54.816;9.482;2023-05-07T14:03:08;8.00;;;4.90;;
69956;SDS011;57283;54.816;9.482;2023-05-07T14:05:38;9.45;;;4.93;;
69956;SDS011;57283;54.816;9.482;2023-05-07T14:08:05;9.60;;;4.50;;
69956;SDS011;57283;54.816;9.482;2023-05-07T14:10:34;7.78;;;4.45;;
69956;SDS011;57283;54.816;9.482;2023-05-07T14:13:02;8.80;;;4.65;;
69956;SDS011;57283;54.816;9.482;2023-05-07T14:15:30;10.13;;;5.27;;
69956;SDS011;57283;54.816;9.482;2023-05-07T14:17:58;8.98;;;4.90;;
69956;SDS011;57283;54.816;9.482;2023-05-07T14:20:26;7.65;;;4.15;;
69956;SDS011;57283;54.816;9.482;2023-05-07T14:22:55;7.93;;;4.40;;
69956;SDS011;57283;54.816;9.482;2023-05-07T14:25:23;8.02;;;4.65;;
69956;SDS011;57283;54.816;9.482;2023-05-07T14:27:51;6.60;;;4.43;;
69956;SDS011;57283;54.816;9.482;2023-05-07T14:30:18;6.60;;;4.22;;
69956;SDS011;57283;54.816;9.482;2023-05-07T14:32:46;8.45;;;3.92;;
69956;SDS011;57283;54.816;9.482;2023-05-07T14:35:13;7.13;;;4.25;;
69956;SDS011;57283;54.816;9.482;2023-05-07T14:37:41;7.57;;;4.13;;
69956;SDS011;57283;54.816;9.482;2023-05-07T14:40:10;8.43;;;4.63;;
69956;SDS011;57283;54.816;9.482;2023-05-07T14:42:38;8.02;;;4.20;;
69956;SDS011;57283;54.816;9.482;2023-05-07T14:45:06;6.78;;;4.22;;
69956;SDS011;57283;54.816;9.482;2023-05-07T14:47:35;8.65;;;4.13;;
69956;SDS011;57283;54.816;9.482;2023-05-07T14:50:02;8.60;;;4.28;;
69956;SDS011;57283;54.816;9.482;2023-05-07T14:52:30;6.47;;;3.90;;